Time;durP1;ratioP1;P1;durP2;ratioP2;P2;SDS_P1;SDS_P2;PMS_P1;PMS_P2;Temp;Humidity;BMP_temperature;BMP_pressure;BME280_temperature;BME280_humidity;BME280_pressure;Samples;Min_cycle;Max_cycle;Signal;HPM_P1;HPM_P2
2022/05/01 00:01:56;;;;;;;25.25;17.98;;;;;;;11.56;71.71;97105.59;4979974;28;20050;-76
2022/05/01 00:04:24;;;;;;;25.52;18.45;;;;;;;11.58;71.95;97113.28;4981441;28;20065;-78
2022/05/01 00:06:51;;;;;;;22.13;16.42;;;;;;;11.58;72.51;97102.81;4981650;28;20248;-80
2022/05/01 00:09:19;;;;;;;22.45;18.10;;;;;;;11.59;73.53;97110.50;4979937;28;20050;-78
2022/05/01 00:11:48;;;;;;;22.23;17.83;;;;;;;11.59;73.67;97105.25;4981997;28;20497;-79
2022/05/01 00:14:17;;;;;;;22.83;17.85;;;;;;;11.61;73.86;97110.28;4981800;28;20054;-81
2022/05/01 00:16:44;;;;;;;20.27;16.70;;;;;;;11.61;74.41;97107.69;4979335;28;20051;-80
2022/05/01 00:19:12;;;;;;;19.85;15.55;;;;;;;11.60;73.25;97111.28;4981479;28;20051;-79
2022/05/01 00:21:55;;;;;;;22.70;16.58;;;;;;;11.59;73.01;97109.66;4979677;28;20485;-79
2022/05/01 00:24:23;;;;;;;22.25;17.33;;;;;;;11.59;73.22;97109.66;4979568;28;20047;-81
2022/05/01 00:26:52;;;;;;;22.45;17.98;;;;;;;11.58;72.54;97105.44;4977437;28;20505;-78
2022/05/01 00:29:20;;;;;;;20.60;17.10;;;;;;;11.58;73.03;97110.66;4978845;28;20421;-78
2022/05/01 00:31:47;;;;;;;22.70;17.95;;;;;;;11.59;72.71;97112.25;4981983;28;20051;-78
2022/05/01 00:37:00;;;;;;;43.67;29.50;;;;;;;11.58;72.84;97101.00;4978312;28;20449;-78
2022/05/01 00:39:27;;;;;;;25.77;18.92;;;;;;;11.55;72.64;97109.22;4978134;28;20053;-80
2022/05/01 00:41:56;;;;;;;21.60;16.45;;;;;;;11.58;73.15;97113.28;4978930;28;20055;-78
2022/05/01 00:44:24;;;;;;;21.50;17.77;;;;;;;11.58;73.24;97113.28;4978529;28;20061;-80
2022/05/01 00:46:53;;;;;;;22.85;17.90;;;;;;;11.55;73.34;97110.00;4978477;28;20069;-78
2022/05/01 00:49:23;;;;;;;24.13;18.30;;;;;;;11.54;73.98;97111.03;4981683;28;20055;-80
2022/05/01 00:51:52;;;;;;;21.58;18.02;;;;;;;11.57;73.93;97114.25;4978386;28;20051;-78
2022/05/01 00:54:23;;;;;;;24.00;18.10;;;;;;;11.56;73.92;97113.44;4978576;28;20051;-78
2022/05/01 00:56:53;;;;;;;24.15;17.77;;;;;;;11.56;74.50;97116.03;4978393;28;20051;-81
2022/05/01 00:59:23;;;;;;;22.40;18.20;;;;;;;11.57;73.06;97111.63;4979143;28;20055;-77
2022/05/01 01:01:52;;;;;;;21.60;16.23;;;;;;;11.50;71.74;97117.56;4980264;28;20501;-80
2022/05/01 01:04:20;;;;;;;22.50;18.20;;;;;;;11.47;70.77;97111.88;4980546;28;20493;-78
2022/05/01 01:06:48;;;;;;;21.42;16.33;;;;;;;11.44;73.06;97113.03;4981120;28;20051;-77
2022/05/01 01:09:17;;;;;;;22.85;17.67;;;;;;;11.43;71.83;97111.41;4981725;28;20525;-77
2022/05/01 01:11:45;;;;;;;23.38;18.33;;;;;;;11.41;70.96;97110.75;4981763;28;20051;-82
2022/05/01 01:14:15;;;;;;;21.05;16.58;;;;;;;11.41;71.92;97109.97;4984202;28;20070;-80
2022/05/01 01:16:44;;;;;;;20.63;17.13;;;;;;;11.44;73.33;97113.03;4981534;28;20054;-79
2022/05/01 01:19:12;;;;;;;24.38;18.70;;;;;;;11.46;73.27;97110.25;4981160;28;20062;-79
2022/05/01 01:21:42;;;;;;;23.13;17.50;;;;;;;11.46;74.44;97103.22;4984868;28;20051;-79
2022/05/01 01:24:10;;;;;;;54.83;38.15;;;;;;;11.47;74.13;97106.66;4981172;28;20061;-80
2022/05/01 01:26:39;;;;;;;31.48;23.30;;;;;;;11.46;74.32;97098.00;4980093;28;20125;-77
2022/05/01 01:31:40;;;;;;;23.88;18.25;;;;;;;11.46;74.15;97095.41;4983560;28;20055;-78
2022/05/01 01:31:55;;;;;;;24.20;17.33;;;;;;;11.47;74.09;97099.63;4981464;28;20066;-78
2022/05/01 01:34:25;;;;;;;23.50;17.63;;;;;;;11.47;73.20;97094.41;4981288;28;20109;-78
2022/05/01 01:36:54;;;;;;;22.98;17.50;;;;;;;11.47;73.99;97102.22;4980265;28;20061;-78
2022/05/01 01:39:25;;;;;;;22.83;18.27;;;;;;;11.48;74.79;97098.66;4981280;28;20150;-79
2022/05/01 01:41:55;;;;;;;21.55;17.05;;;;;;;11.48;73.95;97098.66;4980633;28;20425;-76
2022/05/01 01:44:24;;;;;;;21.42;16.95;;;;;;;11.47;73.90;97086.56;4980724;28;20130;-79
2022/05/01 01:46:52;;;;;;;21.60;16.40;;;;;;;11.47;73.82;97091.78;4983806;28;20055;-81
2022/05/01 01:49:20;;;;;;;20.13;16.73;;;;;;;11.47;72.64;97097.00;4984147;28;20464;-79
2022/05/01 01:51:47;;;;;;;20.73;17.20;;;;;;;11.46;73.09;97094.59;4983633;28;20050;-79
2022/05/01 01:54:16;;;;;;;21.35;17.13;;;;;;;11.46;73.05;97094.59;4983947;28;20051;-79
2022/05/01 01:56:44;;;;;;;23.10;19.02;;;;;;;11.46;72.77;97095.41;4983462;28;20057;-78
2022/05/01 01:59:11;;;;;;;21.48;17.08;;;;;;;11.45;72.56;97083.31;4983709;28;20146;-78
2022/05/01 02:01:42;;;;;;;20.33;16.52;;;;;;;11.45;72.99;97083.31;4983368;28;20046;-80
2022/05/01 02:04:10;;;;;;;22.52;17.98;;;;;;;11.41;71.18;97076.81;4983509;28;20051;-78
2022/05/01 02:06:38;;;;;;;20.33;16.35;;;;;;;11.40;72.88;97075.19;4979958;28;20061;-80
2022/05/01 02:09:07;;;;;;;20.95;17.10;;;;;;;11.40;73.15;97069.97;4981029;28;20054;-80
2022/05/01 02:11:37;;;;;;;21.10;15.98;;;;;;;11.39;71.37;97073.59;4980144;28;20057;-79
2022/05/01 02:14:10;;;;;;;21.80;17.17;;;;;;;11.40;72.65;97069.16;4980107;28;20105;-77
2022/05/01 02:16:39;;;;;;;24.05;18.33;;;;;;;11.41;73.28;97066.34;4980054;28;20057;-79
2022/05/01 02:19:07;;;;;;;19.85;16.85;;;;;;;11.42;72.65;97068.00;4980205;28;20203;-79
2022/05/01 02:21:35;;;;;;;21.40;17.65;;;;;;;11.43;73.47;97064.38;4979594;28;20057;-77
2022/05/01 02:24:08;;;;;;;19.55;16.60;;;;;;;11.41;73.30;97068.16;4979425;28;20560;-80
2022/05/01 02:26:38;;;;;;;22.27;17.75;;;;;;;11.38;71.31;97064.09;4979062;28;20428;-77
2022/05/01 02:29:09;;;;;;;22.70;17.42;;;;;;;11.37;73.06;97059.88;4981167;28;20437;-78
2022/05/01 02:31:39;;;;;;;21.48;17.50;;;;;;;11.39;73.66;97060.53;4978940;28;20105;-77
2022/05/01 02:34:07;;;;;;;20.15;16.92;;;;;;;11.40;73.71;97049.06;4978804;28;20057;-80
2022/05/01 02:36:34;;;;;;;21.17;16.85;;;;;;;11.40;72.98;97053.50;4978103;28;20402;-76
2022/05/01 02:39:02;;;;;;;26.52;18.50;;;;;;;11.40;72.64;97051.69;4978519;28;20539;-76
2022/05/01 02:41:29;;;;;;;26.40;18.05;;;;;;;11.40;72.68;97049.06;4979288;28;20656;-78
2022/05/01 02:43:58;;;;;;;31.02;18.65;;;;;;;11.37;70.97;97044.22;4983929;28;20046;-82
2022/05/01 02:46:26;;;;;;;26.73;18.10;;;;;;;11.36;71.46;97045.19;4982550;28;20050;-79
2022/05/01 02:48:54;;;;;;;25.23;16.65;;;;;;;11.38;73.07;97045.03;4980142;28;20055;-78
2022/05/01 02:51:22;;;;;;;25.85;18.02;;;;;;;11.40;73.63;97049.06;4979654;28;20046;-80
2022/05/01 02:53:49;;;;;;;25.73;18.52;;;;;;;11.41;72.89;97048.06;4980297;28;20568;-80
2022/05/01 02:56:17;;;;;;;27.92;18.52;;;;;;;11.39;72.44;97047.47;4978519;28;20050;-78
2022/05/01 02:58:45;;;;;;;26.77;17.45;;;;;;;11.40;73.83;97043.84;4979609;28;20429;-78
2022/05/01 03:01:14;;;;;;;26.98;18.58;;;;;;;11.39;72.24;97042.25;4979700;28;20058;-81
2022/05/01 03:03:41;;;;;;;28.15;18.88;;;;;;;11.37;72.24;97044.22;4979042;28;20390;-82
2022/05/01 03:06:09;;;;;;;27.85;18.80;;;;;;;11.35;73.18;97035.75;4978469;28;20074;-78
2022/05/01 03:08:35;;;;;;;27.55;19.02;;;;;;;11.37;73.91;97044.22;4979501;28;20498;-81
2022/05/01 03:11:03;;;;;;;27.50;19.55;;;;;;;11.38;74.18;97043.22;4979081;28;20057;-81
2022/05/01 03:13:31;;;;;;;29.50;18.88;;;;;;;11.38;73.77;97050.25;4979585;28;20046;-76
2022/05/01 03:16:00;;;;;;;26.80;19.70;;;;;;;11.38;73.65;97047.63;4978930;28;20050;-78
2022/05/01 03:23:59;;;;;;;28.42;20.15;;;;;;;11.34;74.53;97044.53;4970823;28;20058;-78
2022/05/01 03:26:27;;;;;;;29.20;18.75;;;;;;;11.34;74.45;97039.31;4977472;28;20051;-80
2022/05/01 03:28:54;;;;;;;28.08;19.65;;;;;;;11.33;74.13;97035.91;4979202;28;20054;-79
2022/05/01 03:31:22;;;;;;;26.88;19.98;;;;;;;11.33;74.64;97038.50;4978884;28;20577;-82
2022/05/01 03:33:51;;;;;;;27.60;19.38;;;;;;;11.32;74.72;97041.28;4978362;28;20062;-78
2022/05/01 03:36:18;;;;;;;28.38;19.02;;;;;;;11.32;74.50;97036.06;4979834;28;20053;-78
2022/05/01 03:38:46;;;;;;;28.00;18.60;;;;;;;11.33;74.64;97035.91;4981610;28;20429;-79
2022/05/01 03:41:16;;;;;;;26.25;18.58;;;;;;;11.30;73.23;97043.28;4980632;28;20057;-79
2022/05/01 03:43:44;;;;;;;25.65;17.40;;;;;;;11.30;74.45;97043.28;4979390;28;20528;-80
2022/05/01 03:46:12;;;;;;;25.35;18.58;;;;;;;11.31;75.34;97040.50;4981091;28;20047;-78
2022/05/01 03:48:39;;;;;;;27.48;18.98;;;;;;;11.33;75.53;97040.31;4981774;28;20059;-77
2022/05/01 03:51:08;;;;;;;28.42;19.80;;;;;;;11.34;75.51;97049.75;4981308;28;20047;-79
2022/05/01 03:53:36;;;;;;;32.55;20.35;;;;;;;11.31;73.58;97050.13;4982178;28;20050;-80
2022/05/01 03:56:04;;;;;;;23.73;17.23;;;;;;;11.28;74.35;97048.69;4981547;28;20054;-80
2022/05/01 03:58:32;;;;;;;27.48;19.55;;;;;;;11.27;75.01;97051.47;4982337;28;20069;-81
2022/05/01 04:00:59;;;;;;;24.70;18.05;;;;;;;11.26;73.80;97057.66;4974219;28;20051;-81
2022/05/01 04:03:27;;;;;;;26.42;18.80;;;;;;;11.29;75.18;97054.72;4983405;28;20057;-78
2022/05/01 04:05:54;;;;;;;26.38;18.95;;;;;;;11.29;75.10;97049.50;4982251;28;20117;-78
2022/05/01 04:08:23;;;;;;;25.90;18.48;;;;;;;11.30;74.25;97058.94;4982043;28;20050;-80
2022/05/01 04:10:51;;;;;;;27.75;18.98;;;;;;;11.30;74.88;97053.72;4982413;28;20429;-79
2022/05/01 04:13:18;;;;;;;25.48;17.58;;;;;;;11.28;73.89;97055.69;4982633;28;20054;-80
2022/05/01 04:15:46;;;;;;;29.83;20.42;;;;;;;11.29;74.97;97052.91;4981494;28;20078;-77
2022/05/01 04:18:13;;;;;;;29.40;20.65;;;;;;;11.31;75.37;97055.34;4981881;28;20046;-78
2022/05/01 04:20:41;;;;;;;25.27;18.95;;;;;;;11.32;75.17;97055.16;4981195;28;20061;-80
2022/05/01 04:23:09;;;;;;;26.55;19.63;;;;;;;11.32;73.71;97051.75;4981674;28;20057;-79
2022/05/01 04:25:39;;;;;;;26.27;18.35;;;;;;;11.32;73.35;97056.97;4979690;28;20054;-80
2022/05/01 04:28:08;;;;;;;28.48;20.23;;;;;;;11.28;71.91;97056.53;4977862;28;20054;-79
2022/05/01 04:30:36;;;;;;;26.85;18.30;;;;;;;11.27;72.49;97048.84;4978449;28;20053;-78
2022/05/01 04:33:06;;;;;;;24.73;18.33;;;;;;;11.27;72.81;97061.91;4978570;28;20055;-78
2022/05/01 04:35:37;;;;;;;27.75;19.67;;;;;;;11.30;73.65;97058.94;4978080;28;20501;-78
2022/05/01 04:38:07;;;;;;;27.20;18.77;;;;;;;11.30;72.92;97057.16;4978599;28;20059;-78
2022/05/01 04:40:36;;;;;;;26.67;19.55;;;;;;;11.33;73.38;97061.22;4982503;28;20046;-78
2022/05/01 04:43:07;;;;;;;23.85;18.92;;;;;;;11.33;72.54;97056.78;4982376;28;20054;-78
2022/05/01 04:45:36;;;;;;;25.83;19.03;;;;;;;11.33;72.81;97056.00;4985536;28;20118;-77
2022/05/01 04:48:05;;;;;;;26.83;19.65;;;;;;;11.33;73.38;97058.59;4983752;28;20047;-80
2022/05/01 04:50:33;;;;;;;31.52;20.38;;;;;;;11.32;72.87;97052.53;4982476;28;20055;-78
2022/05/01 04:53:01;;;;;;;27.52;20.85;;;;;;;11.28;71.62;97050.47;4983158;28;20055;-79
2022/05/01 04:55:30;;;;;;;29.98;21.20;;;;;;;11.26;72.02;97060.28;4984874;28;20051;-78
2022/05/01 04:57:58;;;;;;;29.65;20.38;;;;;;;11.32;74.19;97063.00;4980541;28;20512;-78
2022/05/01 05:00:27;;;;;;;28.33;20.13;;;;;;;11.35;75.39;97061.84;4981339;28;20054;-77
2022/05/01 05:02:56;;;;;;;26.90;19.88;;;;;;;11.37;74.71;97065.09;4981471;28;20085;-78
2022/05/01 05:05:27;;;;;;;28.30;20.40;;;;;;;11.37;75.00;97065.09;4981326;28;20133;-78
2022/05/01 05:07:55;;;;;;;27.75;20.95;;;;;;;11.36;72.76;97068.69;4981589;28;20051;-80
2022/05/01 05:10:22;;;;;;;29.67;21.60;;;;;;;11.34;73.43;97068.06;4981486;28;20463;-79
2022/05/01 05:12:50;;;;;;;27.45;20.13;;;;;;;11.33;74.08;97069.84;4982959;28;20051;-79
2022/05/01 05:15:20;;;;;;;27.13;20.02;;;;;;;11.34;74.75;97076.69;4982966;28;20055;-80
2022/05/01 05:17:49;;;;;;;28.23;19.58;;;;;;;11.34;74.51;97075.88;4983534;28;20138;-77
2022/05/01 05:20:17;;;;;;;27.27;20.38;;;;;;;11.35;74.15;97080.13;4984455;28;20054;-79
2022/05/01 05:22:44;;;;;;;27.40;20.50;;;;;;;11.36;74.97;97079.13;4983273;28;20051;-78
2022/05/01 05:25:15;;;;;;;30.45;21.75;;;;;;;11.36;74.30;97079.13;4984031;28;20057;-78
2022/05/01 05:27:43;;;;;;;28.67;19.98;;;;;;;11.37;75.13;97080.78;4979992;28;20054;-78
2022/05/01 05:30:11;;;;;;;29.63;21.70;;;;;;;11.38;75.30;97077.16;4982252;28;20051;-78
2022/05/01 05:32:39;;;;;;;32.28;20.25;;;;;;;11.37;75.12;97078.16;4983489;28;20062;-78
2022/05/01 05:35:09;;;;;;;27.65;19.92;;;;;;;11.38;74.58;97079.78;4980975;28;20057;-77
2022/05/01 05:37:36;;;;;;;29.50;20.48;;;;;;;11.38;75.38;97077.16;4980285;28;20051;-80
2022/05/01 05:40:06;;;;;;;28.17;20.65;;;;;;;11.39;75.58;97081.41;4981201;28;20062;-78
2022/05/01 05:42:34;;;;;;;27.63;20.02;;;;;;;11.38;74.81;97082.38;4980929;28;20423;-80
2022/05/01 05:45:01;;;;;;;28.95;20.80;;;;;;;11.38;74.33;97082.38;4973250;28;20489;-78
2022/05/01 05:47:29;;;;;;;30.10;21.95;;;;;;;11.39;75.07;97093.66;4983013;28;20054;-79
2022/05/01 05:49:56;;;;;;;29.63;20.42;;;;;;;11.40;75.34;97093.47;4981652;28;20050;-81
2022/05/01 05:52:26;;;;;;;29.15;19.67;;;;;;;11.38;73.71;97092.84;4982957;28;20066;-78
2022/05/01 05:54:53;;;;;;;25.73;19.70;;;;;;;11.38;74.79;97092.84;4981981;28;20050;-78
2022/05/01 05:57:21;;;;;;;32.88;21.92;;;;;;;11.40;75.16;97090.06;4979893;28;20065;-78
2022/05/01 05:59:48;;;;;;;32.80;22.00;;;;;;;11.41;75.42;97100.31;4981174;28;20051;-77
2022/05/01 06:02:16;;;;;;;31.77;21.45;;;;;;;11.40;73.97;97097.91;4980529;28;20058;-78
2022/05/01 06:04:44;;;;;;;33.58;20.90;;;;;;;11.41;73.86;97096.91;4982752;28;20047;-78
2022/05/01 06:07:12;;;;;;;32.97;21.13;;;;;;;11.41;73.24;97095.09;4979780;28;20265;-78
2022/05/01 06:09:46;;;;;;;29.55;20.80;;;;;;;11.42;74.28;97098.53;4980064;28;20059;-77
2022/05/01 06:12:14;;;;;;;30.08;21.05;;;;;;;11.43;73.29;97098.34;4980106;28;20082;-78
2022/05/01 06:14:42;;;;;;;28.42;20.17;;;;;;;11.44;74.17;97096.56;4985651;28;20073;-79
2022/05/01 06:17:09;;;;;;;27.60;19.45;;;;;;;11.46;74.05;97100.63;4982666;28;20055;-78
2022/05/01 06:19:37;;;;;;;30.27;19.92;;;;;;;11.48;74.94;97106.50;4982615;28;20424;-78
2022/05/01 06:22:05;;;;;;;29.70;20.25;;;;;;;11.48;73.79;97103.88;4982781;28;20059;-78
2022/05/01 06:24:33;;;;;;;27.88;20.00;;;;;;;11.50;73.34;97114.13;4980618;28;20051;-79
2022/05/01 06:27:01;;;;;;;29.75;20.65;;;;;;;11.51;72.88;97108.75;4982565;28;20051;-79
2022/05/01 06:29:29;;;;;;;28.63;21.05;;;;;;;11.53;73.18;97101.53;4983527;28;20061;-81
2022/05/01 06:31:57;;;;;;;25.35;19.30;;;;;;;11.54;71.96;97112.78;4982673;28;20053;-79
2022/05/01 06:34:24;;;;;;;27.08;18.92;;;;;;;11.55;71.57;97106.59;4983418;28;20130;-79
2022/05/01 06:36:52;;;;;;;28.27;20.75;;;;;;;11.61;72.68;97112.91;4982746;28;20050;-82
2022/05/01 06:39:19;;;;;;;28.25;20.13;;;;;;;11.66;74.08;97108.78;4980962;28;20505;-81
2022/05/01 06:41:47;;;;;;;30.27;19.02;;;;;;;11.71;74.03;97108.25;4981122;28;20062;-77
2022/05/01 06:44:16;;;;;;;27.60;19.80;;;;;;;11.75;75.11;97110.34;4979670;28;20402;-78
2022/05/01 06:46:43;;;;;;;31.30;20.67;;;;;;;11.81;75.19;97108.84;4981871;28;20055;-82
2022/05/01 06:49:12;;;;;;;28.40;20.02;;;;;;;11.85;75.00;97112.72;4982625;28;20050;-79
2022/05/01 06:51:39;;;;;;;28.27;18.65;;;;;;;11.85;72.22;97102.28;4982952;28;20054;-79
2022/05/01 06:54:08;;;;;;;28.02;18.92;;;;;;;11.86;73.90;97103.06;4982595;28;20433;-79
2022/05/01 06:56:36;;;;;;;28.30;17.60;;;;;;;11.91;72.76;97103.38;4981615;28;20054;-81
2022/05/01 06:59:04;;;;;;;22.33;16.33;;;;;;;11.89;71.28;97103.53;4983521;28;20414;-80
2022/05/01 07:01:33;;;;;;;25.00;19.00;;;;;;;11.93;72.43;97104.00;4979483;28;20054;-80
2022/05/01 07:04:01;;;;;;;23.13;17.02;;;;;;;11.99;72.41;97112.97;4983379;28;20050;-79
2022/05/01 07:06:28;;;;;;;21.27;16.17;;;;;;;11.97;70.71;97112.31;4982914;28;20047;-79
2022/05/01 07:08:56;;;;;;;26.77;18.95;;;;;;;11.98;71.07;97109.50;4983384;28;20501;-79
2022/05/01 07:11:23;;;;;;;29.25;17.73;;;;;;;12.01;70.56;97111.78;4983087;28;20055;-80
2022/05/01 07:13:51;;;;;;;25.85;17.70;;;;;;;12.03;69.56;97114.22;4983374;28;20429;-81
2022/05/01 07:16:20;;;;;;;24.83;18.33;;;;;;;12.03;69.39;97114.22;4982177;28;20050;-78
2022/05/01 07:18:50;;;;;;;25.10;18.73;;;;;;;12.04;69.43;97108.00;4980104;28;20086;-82
2022/05/01 07:21:17;;;;;;;24.02;17.75;;;;;;;12.10;71.18;97109.91;4982152;28;20137;-77
2022/05/01 07:23:45;;;;;;;26.30;18.20;;;;;;;12.15;71.60;97107.56;4978980;28;20231;-79
2022/05/01 07:26:13;;;;;;;25.35;18.58;;;;;;;12.20;70.70;97101.78;4980031;28;20145;-81
2022/05/01 07:28:40;;;;;;;25.17;18.15;;;;;;;12.24;71.03;97101.25;4983193;28;20436;-80
2022/05/01 07:31:08;;;;;;;24.08;17.60;;;;;;;12.24;69.09;97098.63;4981557;28;20153;-77
2022/05/01 07:33:36;;;;;;;21.67;16.17;;;;;;;12.24;71.19;97098.63;4982011;28;20058;-77
2022/05/01 07:36:05;;;;;;;23.58;16.25;;;;;;;12.29;70.89;97098.91;4979912;28;20078;-78
2022/05/01 07:38:33;;;;;;;23.73;17.25;;;;;;;12.38;71.82;97109.31;4980005;28;20054;-78
2022/05/01 07:41:00;;;;;;;23.13;17.45;;;;;;;12.42;69.92;97105.31;4979837;28;20054;-78
2022/05/01 07:43:28;;;;;;;22.83;16.67;;;;;;;12.45;70.87;97103.16;4981220;28;20070;-78
2022/05/01 07:45:55;;;;;;;22.42;16.25;;;;;;;12.51;70.83;97099.00;4979608;28;20051;-81
2022/05/01 07:48:23;;;;;;;22.75;16.38;;;;;;;12.52;68.95;97100.63;4980253;28;20058;-78
2022/05/01 07:50:50;;;;;;;22.52;16.40;;;;;;;12.51;67.79;97099.00;4980873;28;20062;-78
2022/05/01 07:53:19;;;;;;;23.23;16.52;;;;;;;12.51;67.20;97099.81;4981058;28;20133;-80
2022/05/01 07:55:47;;;;;;;25.75;16.33;;;;;;;12.56;67.17;97101.88;4980256;28;20517;-78
2022/05/01 07:58:15;;;;;;;21.00;15.70;;;;;;;12.60;66.16;97103.16;4981031;28;20402;-78
2022/05/01 08:00:42;;;;;;;21.73;15.75;;;;;;;12.64;65.95;97108.81;4981265;28;20055;-79
2022/05/01 08:05:55;;;;;;;19.67;14.75;;;;;;;12.77;67.33;97109.81;4979726;28;20050;-77
2022/05/01 08:08:24;;;;;;;19.15;14.13;;;;;;;12.83;68.52;97104.81;4979923;28;20065;-79
2022/05/01 08:10:51;;;;;;;21.85;15.63;;;;;;;12.84;66.41;97104.66;4980696;28;20061;-79
2022/05/01 08:13:19;;;;;;;21.20;14.40;;;;;;;12.83;65.33;97110.06;4982381;28;20058;-78
2022/05/01 08:15:46;;;;;;;20.02;14.30;;;;;;;12.83;66.96;97110.06;4979839;28;20051;-74
2022/05/01 08:21:07;;;;;;;18.75;14.00;;;;;;;12.83;66.08;97112.69;4982274;28;20524;-77
2022/05/01 08:23:38;;;;;;;19.63;14.68;;;;;;;12.82;65.20;97113.69;4979866;28;20111;-78
2022/05/01 08:26:06;;;;;;;21.27;14.82;;;;;;;12.77;65.22;97106.38;4979576;28;20061;-78
2022/05/01 08:28:34;;;;;;;20.05;15.52;;;;;;;12.70;65.35;97103.69;4980464;28;20134;-78
2022/05/01 08:31:02;;;;;;;20.77;14.38;;;;;;;12.70;65.58;97106.31;4980485;28;20569;-79
2022/05/01 08:33:30;;;;;;;17.65;14.18;;;;;;;12.73;66.66;97105.94;4981162;28;20493;-79
2022/05/01 08:35:58;;;;;;;20.63;15.70;;;;;;;12.80;68.16;97108.63;4980790;28;20054;-79
2022/05/01 08:38:26;;;;;;;21.95;14.80;;;;;;;12.84;66.10;97104.66;4982224;28;20050;-77
2022/05/01 08:40:55;;;;;;;20.08;14.20;;;;;;;12.89;66.18;97109.34;4980696;28;20055;-79
2022/05/01 08:43:24;;;;;;;19.67;14.13;;;;;;;12.97;67.53;97106.63;4980950;28;20057;-82
2022/05/01 08:46:04;;;;;;;19.63;14.93;;;;;;;13.07;65.61;97104.50;4979751;28;20043;-78
2022/05/01 08:48:40;;;;;;;18.95;13.90;;;;;;;13.23;65.75;97103.47;4980628;28;20051;-79
2022/05/01 08:51:09;;;;;;;20.90;14.73;;;;;;;13.41;67.72;97105.69;4984338;28;20114;-79
2022/05/01 08:53:37;;;;;;;19.42;15.20;;;;;;;13.59;68.34;97105.25;4983430;28;20058;-79
2022/05/01 08:56:08;;;;;;;17.25;13.88;;;;;;;13.76;67.48;97103.97;4981978;28;20061;-78
2022/05/01 08:58:36;;;;;;;18.17;14.50;;;;;;;13.91;65.73;97100.47;4982241;28;20055;-80
2022/05/01 09:01:03;;;;;;;18.88;14.30;;;;;;;14.01;63.71;97099.16;4982703;28;20520;-77
2022/05/01 09:03:31;;;;;;;16.77;12.65;;;;;;;14.09;62.58;97100.81;4982862;28;20154;-78
2022/05/01 09:05:59;;;;;;;16.85;13.00;;;;;;;14.19;63.08;97097.81;4983264;28;20513;-82
2022/05/01 09:08:29;;;;;;;15.80;12.02;;;;;;;14.28;63.08;97101.94;4984327;28;20059;-81
2022/05/01 09:10:56;;;;;;;15.23;12.63;;;;;;;14.35;61.83;97097.53;4985298;28;20051;-80
2022/05/01 09:13:25;;;;;;;15.68;12.05;;;;;;;14.39;64.23;97104.03;4984490;28;20055;-78
2022/05/01 09:15:53;;;;;;;15.18;12.57;;;;;;;14.40;61.79;97097.75;4984730;28;20129;-79
2022/05/01 09:18:22;;;;;;;20.85;14.55;;;;;;;14.33;60.67;97094.28;4985585;28;20047;-80
2022/05/01 09:21:03;;;;;;;17.25;13.63;;;;;;;14.26;59.55;97098.69;4985007;28;20057;-82
2022/05/01 09:23:38;;;;;;;16.40;12.80;;;;;;;14.20;59.73;97089.75;4983587;28;20047;-77
2022/05/01 09:26:06;;;;;;;14.93;13.07;;;;;;;14.23;61.10;97104.31;4986762;28;20106;-79
2022/05/01 09:28:38;;;;;;;18.88;14.40;;;;;;;14.25;59.90;97091.81;4987311;28;20061;-80
2022/05/01 09:31:05;;;;;;;16.88;13.25;;;;;;;14.25;60.13;97098.88;4988973;28;20057;-81
2022/05/01 09:33:33;;;;;;;17.63;13.35;;;;;;;14.21;59.90;97096.66;4987973;28;20139;-78
2022/05/01 09:36:01;;;;;;;17.63;13.23;;;;;;;14.23;60.33;97093.81;4985862;28;20053;-79
2022/05/01 09:38:28;;;;;;;17.15;13.35;;;;;;;14.29;60.33;97098.28;4987473;28;20050;-79
2022/05/01 09:41:00;;;;;;;16.83;13.45;;;;;;;14.31;59.44;97095.50;4988378;28;20424;-78
2022/05/01 09:43:35;;;;;;;16.80;13.27;;;;;;;14.34;59.83;97095.09;4986967;28;20051;-81
2022/05/01 09:46:18;;;;;;;18.05;12.75;;;;;;;14.37;59.00;97085.03;4979314;28;20051;-80
2022/05/01 09:48:58;;;;;;;17.25;13.68;;;;;;;14.36;58.73;97093.09;4986773;28;20074;-78
2022/05/01 09:51:28;;;;;;;17.27;12.52;;;;;;;14.35;59.63;97094.09;4987827;28;20074;-78
2022/05/01 09:53:56;;;;;;;16.13;12.75;;;;;;;14.35;59.45;97091.47;4987827;28;20110;-79
2022/05/01 09:56:24;;;;;;;16.60;13.38;;;;;;;14.36;59.08;97101.75;4988249;28;20047;-79
2022/05/01 09:58:59;;;;;;;16.75;13.48;;;;;;;14.33;58.68;97091.66;4988059;28;20050;-79
2022/05/01 10:01:29;;;;;;;17.63;14.40;;;;;;;14.26;58.96;97090.81;4988361;28;20086;-80
2022/05/01 10:04:01;;;;;;;18.33;13.38;;;;;;;14.21;58.88;97096.66;4988373;28;20053;-79
2022/05/01 10:06:31;;;;;;;16.27;13.70;;;;;;;14.20;59.68;97100.25;4985312;28;20127;-80
2022/05/01 10:09:00;;;;;;;15.80;13.18;;;;;;;14.18;59.09;97090.97;4986924;28;20050;-79
2022/05/01 10:11:30;;;;;;;16.92;13.38;;;;;;;14.12;58.99;97089.09;4986562;28;20055;-80
2022/05/01 10:13:58;;;;;;;18.13;14.40;;;;;;;14.00;59.40;97092.25;4986522;28;20055;-79
2022/05/01 10:16:27;;;;;;;15.63;12.23;;;;;;;13.95;59.54;97092.03;4986010;28;20053;-80
2022/05/01 10:18:57;;;;;;;15.20;13.07;;;;;;;13.93;60.24;97088.00;4985171;28;20054;-79
2022/05/01 10:21:47;;;;;;;19.75;14.23;;;;;;;13.88;59.73;97085.91;4984890;28;20501;-78
2022/05/01 10:24:14;;;;;;;15.48;12.80;;;;;;;13.87;60.45;97089.53;4984715;28;20050;-77
2022/05/01 10:26:52;;;;;;;18.05;13.13;;;;;;;13.86;59.87;97087.91;4983204;28;20047;-81
2022/05/01 10:29:36;;;;;;;17.73;13.30;;;;;;;13.90;60.59;97088.34;4983809;28;20453;-78
2022/05/01 10:32:33;;;;;;;15.43;12.77;;;;;;;13.92;59.71;97083.72;4984676;28;20528;-78
2022/05/01 10:35:41;;;;;;;17.90;13.05;;;;;;;13.92;59.59;97081.09;4983868;28;20050;-80
2022/05/01 10:38:17;;;;;;;15.70;12.65;;;;;;;13.93;59.94;97086.16;4986189;28;20082;-77
2022/05/01 10:40:49;;;;;;;15.02;11.98;;;;;;;13.99;60.01;97082.78;4984045;28;20055;-77
2022/05/01 10:43:28;;;;;;;14.65;11.88;;;;;;;14.06;60.38;97074.13;4983299;28;20055;-78
2022/05/01 10:45:57;;;;;;;16.15;12.48;;;;;;;14.11;60.62;97080.44;4981907;28;20524;-79
2022/05/01 10:48:35;;;;;;;15.38;12.38;;;;;;;14.15;59.81;97067.75;4983930;28;20074;-81
2022/05/01 10:51:40;;;;;;;15.32;12.60;;;;;;;14.19;59.54;97072.41;4986015;28;20051;-80
2022/05/01 10:54:38;;;;;;;18.27;12.10;;;;;;;14.18;59.44;97064.72;4983849;28;20083;-78
2022/05/01 10:57:10;;;;;;;18.33;13.27;;;;;;;14.21;59.28;97059.91;4975497;28;20047;-78
2022/05/01 10:59:42;;;;;;;15.75;12.43;;;;;;;14.24;59.21;97056.09;4984272;28;20105;-76
2022/05/01 11:02:22;;;;;;;16.95;13.05;;;;;;;14.27;59.06;97058.31;4984029;28;20137;-79
2022/05/01 11:04:53;;;;;;;12.95;10.68;;;;;;;14.33;60.00;97057.53;4983416;28;20058;-79
2022/05/01 11:07:22;;;;;;;15.27;12.75;;;;;;;14.36;58.66;97049.28;4982837;28;20047;-77
2022/05/01 11:09:51;;;;;;;14.13;11.60;;;;;;;14.38;58.88;97049.09;4984777;28;20129;-77
2022/05/01 11:12:21;;;;;;;16.02;12.32;;;;;;;14.43;58.76;97050.13;4985253;28;20109;-79
2022/05/01 11:14:51;;;;;;;14.70;11.73;;;;;;;14.51;57.92;97048.34;4983831;28;20051;-79
2022/05/01 11:17:30;;;;;;;14.95;11.50;;;;;;;14.64;57.95;97056.31;4982740;28;20549;-77
2022/05/01 11:20:08;;;;;;;15.20;11.50;;;;;;;14.77;58.02;97043.22;4982034;28;20054;-77
2022/05/01 11:22:36;;;;;;;12.05;10.73;;;;;;;14.92;57.58;97037.00;4983657;28;20089;-80
2022/05/01 11:25:04;;;;;;;13.38;11.00;;;;;;;15.08;58.93;97038.44;4983006;28;20066;-78
2022/05/01 11:27:47;;;;;;;12.07;10.27;;;;;;;15.19;60.22;97041.28;4983089;28;20057;-79
2022/05/01 11:30:22;;;;;;;13.00;10.25;;;;;;;15.24;58.55;97036.25;4984426;28;20055;-80
2022/05/01 11:32:51;;;;;;;12.73;10.25;;;;;;;15.28;57.99;97033.22;4984731;28;20055;-80
2022/05/01 11:35:19;;;;;;;12.70;9.95;;;;;;;15.32;56.46;97039.69;4984989;28;20423;-78
2022/05/01 11:37:50;;;;;;;13.05;10.15;;;;;;;15.36;56.31;97035.66;4984992;28;20138;-79
2022/05/01 11:40:27;;;;;;;13.57;11.18;;;;;;;15.37;56.07;97035.47;4984979;28;20050;-80
2022/05/01 11:43:16;;;;;;;12.15;10.73;;;;;;;15.43;59.03;97025.94;4985705;28;20061;-78